^^
Station Historical Data
Daily Summary for October 11, 2017 Units:  Metric    English   Both
« Previous Day
Next Day »
Daily Weekly Monthly Yearly Custom
  High: Low: Average:
Temperature: 30.7 °C 12.2 °C 19.1 °C
Dew Point: 4.1 °C -9.1 °C -3.2 °C
Humidity: 44% 7% 23%
Wind Speed: 37km/h 0km/h 6.4km/h
Wind Gust: 38.6km/h - -
Wind- - WSW
Pressure: 1013.4 hPa 1007.3 hPa -
Precipitation: 0 mm    
Historical Graphs
 
 
Tabular Data for October 11, 2017
Time Temperature Dew Point Pressure Wind Wind Speed Wind Gust Humidity Rainfall Rate (Hourly) solar Conditions
00:53 18.3 °C -5.1 °C 1012.1 hPa NNW 7.9 km/h 14.5 km/h 20% 0 mm 0.0 W/m2
00:58 18.2 °C -5.1 °C 1012.1 hPa NNW 6.4 km/h 14.5 km/h 20% 0 mm 0.0 W/m2
01:04 18.1 °C -5.2 °C 1011.7 hPa Calm   6.4 km/h 20% 0 mm 0.0 W/m2
01:09 18.1 °C -5.2 °C 1011.7 hPa Calm   11.3 km/h 20% 0 mm 0.0 W/m2
01:14 18 °C -5.3 °C 1011.7 hPa Calm   1.6 km/h 20% 0 mm 0.0 W/m2
01:19 17.9 °C -4.7 °C 1011.7 hPa Calm     21% 0 mm 0.0 W/m2
01:24 17.8 °C -4.8 °C 1011.7 hPa Calm     21% 0 mm 0.0 W/m2
01:29 17.6 °C -5 °C 1011.7 hPa Calm     21% 0 mm 0.0 W/m2
01:35 17.4 °C -5.2 °C 1011.7 hPa Calm     21% 0 mm 0.0 W/m2
01:40 17.3 °C -4.6 °C 1011.4 hPa Calm     22% 0 mm 0.0 W/m2
01:45 17.3 °C -4.6 °C 1011.4 hPa Calm     22% 0 mm 0.0 W/m2
01:55 17.3 °C -4.6 °C 1011.4 hPa Calm     22% 0 mm 0.0 W/m2
02:01 17.4 °C -4.5 °C 1011.4 hPa Calm     22% 0 mm 0.0 W/m2
02:11 17.7 °C -4.3 °C 1011.4 hPa Calm     22% 0 mm 0.0 W/m2
02:16 17.7 °C -4.3 °C 1011.4 hPa Calm     22% 0 mm 0.0 W/m2
02:21 17.6 °C -4.4 °C 1011.4 hPa Calm     22% 0 mm 0.0 W/m2
02:26 17.5 °C -4.5 °C 1011.4 hPa Calm     22% 0 mm 0.0 W/m2
02:31 17.5 °C -4.5 °C 1011.4 hPa Calm     22% 0 mm 0.0 W/m2
02:37 17.4 °C -4.5 °C 1011.1 hPa Calm     22% 0 mm 0.0 W/m2
02:42 17.3 °C -4 °C 1011.1 hPa Calm     23% 0 mm 0.0 W/m2
02:47 17.2 °C -4.1 °C 1011.1 hPa Calm     23% 0 mm 0.0 W/m2
02:53 17.2 °C -4.1 °C 1011.1 hPa Calm     23% 0 mm 0.0 W/m2
02:58 17.1 °C -4.2 °C 1011.1 hPa Calm     23% 0 mm 0.0 W/m2
03:03 17 °C -4.3 °C 1011.1 hPa Calm     23% 0 mm 0.0 W/m2
03:08 16.9 °C -4.4 °C 1011.1 hPa Calm     23% 0 mm 0.0 W/m2
03:13 16.8 °C -3.9 °C 1011.1 hPa Calm     24% 0 mm 0.0 W/m2
03:18 16.6 °C -4.1 °C 1011.1 hPa Calm     24% 0 mm 0.0 W/m2
03:23 16.6 °C -4.1 °C 1010.7 hPa Calm     24% 0 mm 0.0 W/m2
03:29 16.7 °C -4 °C 1010.7 hPa Calm     24% 0 mm 0.0 W/m2
03:39 16.7 °C -4 °C 1010.7 hPa Calm     24% 0 mm 0.0 W/m2
03:44 16.7 °C -4 °C 1010.7 hPa Calm     24% 0 mm 0.0 W/m2
03:49 16.8 °C -3.9 °C 1010.7 hPa NNW 6.4 km/h 12.9 km/h 24% 0 mm 0.0 W/m2
03:54 16.9 °C -3.8 °C 1010.7 hPa NNW 7.9 km/h 12.9 km/h 24% 0 mm 0.0 W/m2
04:05 17.1 °C -3.6 °C 1010.7 hPa NNW 7.9 km/h 11.3 km/h 24% 0 mm 0.0 W/m2
04:10 17 °C -3.7 °C 1010.7 hPa Calm   9.7 km/h 24% 0 mm 0.0 W/m2
04:15 16.9 °C -3.8 °C 1010.7 hPa Calm   12.9 km/h 24% 0 mm 0.0 W/m2
04:20 16.8 °C -3.9 °C 1010.7 hPa Calm   1.6 km/h 24% 0 mm 0.0 W/m2
04:25 16.7 °C -4 °C 1010.7 hPa Calm     24% 0 mm 0.0 W/m2
04:31 16.7 °C -4 °C 1010.7 hPa Calm     24% 0 mm 0.0 W/m2
04:37 16.6 °C -4.1 °C 1011.1 hPa Calm     24% 0 mm 0.0 W/m2
04:42 16.2 °C -4.4 °C 1010.7 hPa Calm     24% 0 mm 0.0 W/m2
04:47 15.8 °C -4.2 °C 1011.1 hPa Calm     25% 0 mm 0.0 W/m2
04:57 15.3 °C -4.1 °C 1011.1 hPa Calm     26% 0 mm 0.0 W/m2
05:02 15.3 °C -4.1 °C 1011.1 hPa Calm     26% 0 mm 0.0 W/m2
05:07 15.7 °C -3.8 °C 1011.1 hPa Calm     26% 0 mm 0.0 W/m2
05:17 15.8 °C -3.7 °C 1011.1 hPa Calm     26% 0 mm 0.0 W/m2
05:22 15.8 °C -3.7 °C 1011.1 hPa Calm     26% 0 mm 0.0 W/m2
05:33 15.1 °C -4.3 °C 1011.4 hPa Calm     26% 0 mm 0.0 W/m2
05:43 14.2 °C -4.5 °C 1011.4 hPa Calm     27% 0 mm 0.0 W/m2
05:48 13.8 °C -4.4 °C 1011.4 hPa Calm     28% 0 mm 0.0 W/m2
05:53 13.5 °C -4.7 °C 1011.7 hPa Calm     28% 0 mm 0.0 W/m2
05:58 13.3 °C -4.4 °C 1011.7 hPa Calm     29% 0 mm 0.0 W/m2
06:04 13.1 °C -4.5 °C 1011.7 hPa Calm     29% 0 mm 0.0 W/m2
06:09 12.9 °C -4.7 °C 1012.1 hPa Calm     29% 0 mm 0.0 W/m2
06:20 12.3 °C -4.8 °C 1012.1 hPa Calm     30% 0 mm 5.0 W/m2
06:25 12.2 °C -4.9 °C 1012.1 hPa Calm     30% 0 mm 7.0 W/m2
06:31 12.4 °C -4.7 °C 1012.1 hPa Calm     30% 0 mm 11.0 W/m2
06:36 12.6 °C -4.5 °C 1012.1 hPa Calm     30% 0 mm 14.0 W/m2
06:39 12.7 °C -4.9 °C 1012.4 hPa Calm     29% 0 mm 19.0 W/m2
06:45 12.9 °C -4.7 °C 1012.4 hPa Calm     29% 0 mm 33.0 W/m2
06:55 13.3 °C -4.8 °C 1012.4 hPa Calm     28% 0 mm 67.0 W/m2
07:21 14.7 °C -4.1 °C 1012.8 hPa Calm     27% 0 mm 169.0 W/m2
07:36 15.3 °C -4.1 °C 1013.1 hPa Calm     26% 0 mm 236.0 W/m2
07:51 16.7 °C -3.4 °C 1013.1 hPa NNW 3.2 km/h 14.5 km/h 25% 0 mm 290.0 W/m2
08:06 17.3 °C -2.9 °C 1013.4 hPa Calm   17.7 km/h 25% 0 mm 353.0 W/m2
08:26 17.9 °C -3 °C 1013.4 hPa North 7.9 km/h 19.3 km/h 24% 0 mm 422.0 W/m2
08:47 18.9 °C -2.7 °C 1013.4 hPa North 9.7 km/h 19.3 km/h 23% 0 mm 487.0 W/m2
09:39 20.6 °C -1.9 °C 1013.4 hPa North 16.3 km/h 17.7 km/h 22% 0 mm 629.0 W/m2
10:00 22.1 °C -0.6 °C 1013.1 hPa North 22.7 km/h 24.1 km/h 22% 0 mm 687.0 W/m2
10:12 23.1 °C -0.4 °C 1012.8 hPa North 14.3 km/h 22.5 km/h 21% 0 mm 744.0 W/m2
10:40 23.9 °C -0.4 °C 1012.8 hPa North 11.1 km/h 30.6 km/h 20% 0 mm 788.0 W/m2
10:52 24.4 °C -0.7 °C 1012.4 hPa North 16.3 km/h 30.6 km/h 19% 0 mm 828.0 W/m2
11:17 25.4 °C -1.4 °C 1011.7 hPa North 14.3 km/h 29 km/h 17% 0 mm 870.0 W/m2
11:52 26.2 °C -2.5 °C 1011.4 hPa North 7.9 km/h 27.4 km/h 15% 0 mm 904.0 W/m2
12:02 26.4 °C -2.3 °C 1011.1 hPa NNW 11.1 km/h 22.5 km/h 15% 0 mm 919.0 W/m2
12:22 27 °C -1.8 °C 1010.7 hPa NNW 11.1 km/h 17.7 km/h 15% 0 mm 926.0 W/m2
12:48 27.3 °C -2.5 °C 1010.4 hPa NNE 16.3 km/h 16.3 km/h 14% 0 mm 923.0 W/m2
13:13 28.3 °C -5 °C 1010 hPa NW 6.4 km/h 11.3 km/h 11% 0 mm 916.0 W/m2
13:38 28.6 °C -4.8 °C 1009.4 hPa NW 7.9 km/h 19.3 km/h 11% 0 mm 893.0 W/m2
13:59 29.4 °C -3 °C 1009 hPa NW 14.3 km/h 14.5 km/h 12% 0 mm 861.0 W/m2
14:19 28.9 °C -3.4 °C 1008.7 hPa Calm     12% 0 mm 826.0 W/m2
14:44 29.5 °C -4.1 °C 1008.4 hPa NNW 9.7 km/h 17.7 km/h 11% 0 mm 780.0 W/m2
15:10 29.6 °C -5.2 °C 1008.4 hPa NW 7.9 km/h 16.1 km/h 10% 0 mm 714.0 W/m2
15:40 30.3 °C -6.1 °C 1008 hPa NW 13 km/h 16.1 km/h 9% 0 mm 626.0 W/m2
16:10 30.4 °C -7.6 °C 1007.7 hPa NW 11.1 km/h 19.3 km/h 8% 0 mm 536.0 W/m2
16:41 30.4 °C -7.6 °C 1007.3 hPa WNW 7.9 km/h 16.1 km/h 8% 0 mm 431.0 W/m2
17:06 30.7 °C -9.1 °C 1007.3 hPa WNW 16.3 km/h 24.1 km/h 7% 0 mm 343.0 W/m2
17:39 30.6 °C -9.1 °C 1007.3 hPa WNW 19.5 km/h 20.9 km/h 7% 0 mm 250.0 W/m2
18:12 27.6 °C 0.3 °C 1008 hPa SSW 25.9 km/h 35.4 km/h 17% 0 mm 97.0 W/m2
18:28 26.5 °C 1.7 °C 1008.4 hPa SSW 37 km/h 38.6 km/h 20% 0 mm 47.0 W/m2
18:43 25.3 °C 2.7 °C 1008.4 hPa SW 24.1 km/h 32.2 km/h 23% 0 mm 16.0 W/m2
18:59 24.1 °C 3.4 °C 1008.7 hPa SSW 20.9 km/h 37 km/h 26% 0 mm 5.0 W/m2
19:29 22.3 °C 2.9 °C 1009.4 hPa South 32 km/h 38.6 km/h 28% 0 mm 0.0 W/m2
19:59 21.2 °C 2.9 °C 1010 hPa SSW 24.1 km/h 29 km/h 30% 0 mm 0.0 W/m2
20:14 20.8 °C 2.6 °C 1010 hPa SSW 24.1 km/h 29 km/h 30% 0 mm 0.0 W/m2
20:30 20.5 °C 2.3 °C 1010.4 hPa SSW 17.7 km/h 29 km/h 30% 0 mm 0.0 W/m2
20:57 19.1 °C 0.6 °C 1011.4 hPa SSW 16.3 km/h 25.7 km/h 29% 0 mm 0.0 W/m2
21:18 18.6 °C 0.2 °C 1011.4 hPa SSW 22.7 km/h 32.2 km/h 29% 0 mm 0.0 W/m2
21:33 18.1 °C 0.7 °C 1011.7 hPa SSW 24.1 km/h 32.2 km/h 31% 0 mm 0.0 W/m2
21:49 17.6 °C 1.1 °C 1012.1 hPa SSW 14.3 km/h 25.7 km/h 33% 0 mm 0.0 W/m2
22:04 17.3 °C 1.7 °C 1012.1 hPa SSW 19.5 km/h 24.1 km/h 35% 0 mm 0.0 W/m2
22:17 16.9 °C 2.1 °C 1012.4 hPa SSW 19.5 km/h 20.9 km/h 37% 0 mm 0.0 W/m2
22:43 16.7 °C 3.7 °C 1012.8 hPa SSW 13 km/h 27.4 km/h 42% 0 mm 0.0 W/m2
22:57 16.4 °C 4.1 °C 1012.8 hPa SSW 16.3 km/h 22.5 km/h 44% 0 mm 0.0 W/m2
Canyon Roadhouse, Fishriver Canyon, Namibia
Compliments of Weather Underground - 2.25 mb